sensor_id;sensor_type;location;lat;lon;timestamp;pressure;altitude;pressure_sealevel;temperature;humidity
59240;BME280;45010;53.640;10.578;2023-08-31T00:02:53;99810.16;;;26.98;42.72
59240;BME280;45010;53.640;10.578;2023-08-31T00:05:53;99818.19;;;26.98;42.39
59240;BME280;45010;53.640;10.578;2023-08-31T00:08:53;99807.75;;;26.97;42.53
59240;BME280;45010;53.640;10.578;2023-08-31T00:11:54;99797.59;;;26.94;42.54
59240;BME280;45010;53.640;10.578;2023-08-31T00:14:54;99809.66;;;26.91;42.69
59240;BME280;45010;53.640;10.578;2023-08-31T00:17:55;99793.81;;;26.90;43.12
59240;BME280;45010;53.640;10.578;2023-08-31T00:20:55;99766.31;;;26.73;42.46
59240;BME280;45010;53.640;10.578;2023-08-31T00:23:55;99785.53;;;26.86;43.13
59240;BME280;45010;53.640;10.578;2023-08-31T00:26:56;99784.22;;;26.83;42.63
59240;BME280;45010;53.640;10.578;2023-08-31T00:29:56;99780.75;;;26.78;43.14
59240;BME280;45010;53.640;10.578;2023-08-31T00:32:58;99788.22;;;26.81;43.05
59240;BME280;45010;53.640;10.578;2023-08-31T00:36:01;99804.81;;;26.78;42.79
59240;BME280;45010;53.640;10.578;2023-08-31T00:39:06;99797.84;;;26.77;42.74
59240;BME280;45010;53.640;10.578;2023-08-31T00:42:07;99806.94;;;26.76;43.18
59240;BME280;45010;53.640;10.578;2023-08-31T00:45:08;99813.63;;;26.73;43.28
59240;BME280;45010;53.640;10.578;2023-08-31T00:48:08;99820.31;;;26.70;43.10
59240;BME280;45010;53.640;10.578;2023-08-31T00:51:09;99820.31;;;26.70;43.36
59240;BME280;45010;53.640;10.578;2023-08-31T00:54:11;99817.94;;;26.69;43.19
59240;BME280;45010;53.640;10.578;2023-08-31T00:57:11;99824.63;;;26.66;42.95
59240;BME280;45010;53.640;10.578;2023-08-31T01:00:12;99823.03;;;26.65;43.06
59240;BME280;45010;53.640;10.578;2023-08-31T01:03:44;99825.13;;;26.63;42.98
59240;BME280;45010;53.640;10.578;2023-08-31T01:06:59;99833.16;;;26.63;42.89
59240;BME280;45010;53.640;10.578;2023-08-31T01:14:00;99834.78;;;26.59;43.43
59240;BME280;45010;53.640;10.578;2023-08-31T01:17:05;99833.16;;;26.58;43.49
59240;BME280;45010;53.640;10.578;2023-08-31T01:20:08;99815.50;;;26.41;43.33
59240;BME280;45010;53.640;10.578;2023-08-31T01:23:12;99839.84;;;26.55;43.45
59240;BME280;45010;53.640;10.578;2023-08-31T01:26:13;99834.75;;;26.49;43.39
59240;BME280;45010;53.640;10.578;2023-08-31T01:29:14;99834.22;;;26.52;43.49
59240;BME280;45010;53.640;10.578;2023-08-31T01:32:15;99826.19;;;26.46;43.22
59240;BME280;45010;53.640;10.578;2023-08-31T01:35:16;99833.69;;;26.44;43.17
59240;BME280;45010;53.640;10.578;2023-08-31T01:38:21;99820.84;;;26.36;43.57
59240;BME280;45010;53.640;10.578;2023-08-31T01:41:26;99836.88;;;26.46;43.42
59240;BME280;45010;53.640;10.578;2023-08-31T01:44:30;99844.91;;;26.46;43.56
59240;BME280;45010;53.640;10.578;2023-08-31T01:47:32;99845.19;;;26.45;43.50
59240;BME280;45010;53.640;10.578;2023-08-31T01:50:33;99836.34;;;26.39;43.52
59240;BME280;45010;53.640;10.578;2023-08-31T01:53:33;99845.44;;;26.43;43.31
59240;BME280;45010;53.640;10.578;2023-08-31T01:56:34;99849.19;;;26.42;43.47
59240;BME280;45010;53.640;10.578;2023-08-31T01:59:35;99852.94;;;26.41;43.52
59240;BME280;45010;53.640;10.578;2023-08-31T02:02:35;99848.63;;;26.40;43.23
59240;BME280;45010;53.640;10.578;2023-08-31T02:05:35;99848.63;;;26.40;43.45
59240;BME280;45010;53.640;10.578;2023-08-31T02:08:36;99848.94;;;26.39;43.40
59240;BME280;45010;53.640;10.578;2023-08-31T02:11:36;99850.78;;;26.38;43.68
59240;BME280;45010;53.640;10.578;2023-08-31T02:14:38;99852.94;;;26.36;43.71
59240;BME280;45010;53.640;10.578;2023-08-31T02:17:38;99862.81;;;26.36;43.40
59240;BME280;45010;53.640;10.578;2023-08-31T02:20:39;99864.69;;;26.35;43.74
59240;BME280;45010;53.640;10.578;2023-08-31T02:23:39;99869.47;;;26.33;43.41
59240;BME280;45010;53.640;10.578;2023-08-31T02:26:39;99862.53;;;26.32;43.28
59240;BME280;45010;53.640;10.578;2023-08-31T02:29:40;99861.44;;;26.28;43.55
59240;BME280;45010;53.640;10.578;2023-08-31T02:32:40;99874.31;;;26.31;43.90
59240;BME280;45010;53.640;10.578;2023-08-31T02:35:40;99864.69;;;26.30;43.80
59240;BME280;45010;53.640;10.578;2023-08-31T02:38:41;99860.41;;;26.29;43.42
59240;BME280;45010;53.640;10.578;2023-08-31T02:41:41;99869.47;;;26.28;43.82
59240;BME280;45010;53.640;10.578;2023-08-31T02:44:41;99866.78;;;26.28;43.32
59240;BME280;45010;53.640;10.578;2023-08-31T02:47:42;99875.88;;;26.27;43.26
59240;BME280;45010;53.640;10.578;2023-08-31T02:50:42;99868.94;;;26.26;43.62
59240;BME280;45010;53.640;10.578;2023-08-31T02:53:42;99863.59;;;26.26;43.79
59240;BME280;45010;53.640;10.578;2023-08-31T02:56:43;99866.53;;;26.24;43.84
59240;BME280;45010;53.640;10.578;2023-08-31T02:59:43;99864.66;;;26.25;43.48
59240;BME280;45010;53.640;10.578;2023-08-31T03:02:43;99869.44;;;26.23;43.83
59240;BME280;45010;53.640;10.578;2023-08-31T03:05:44;99863.28;;;26.17;43.85
59240;BME280;45010;53.640;10.578;2023-08-31T03:08:45;99873.16;;;26.22;43.82
59240;BME280;45010;53.640;10.578;2023-08-31T03:11:45;99876.91;;;26.21;43.83
59240;BME280;45010;53.640;10.578;2023-08-31T03:14:45;99881.47;;;26.20;43.38
59240;BME280;45010;53.640;10.578;2023-08-31T03:17:46;99879.84;;;26.19;43.50
59240;BME280;45010;53.640;10.578;2023-08-31T03:20:46;99878.22;;;26.18;43.57
59240;BME280;45010;53.640;10.578;2023-08-31T03:23:46;99882.78;;;26.17;43.55
59240;BME280;45010;53.640;10.578;2023-08-31T03:26:47;99881.16;;;26.16;43.82
59240;BME280;45010;53.640;10.578;2023-08-31T03:29:47;99877.44;;;26.17;43.67
59240;BME280;45010;53.640;10.578;2023-08-31T03:32:47;99890.25;;;26.15;43.69
59240;BME280;45010;53.640;10.578;2023-08-31T03:35:48;99899.34;;;26.14;43.48
59240;BME280;45010;53.640;10.578;2023-08-31T03:38:48;99889.69;;;26.08;43.58
59240;BME280;45010;53.640;10.578;2023-08-31T03:41:48;99890.78;;;26.12;43.53
59240;BME280;45010;53.640;10.578;2023-08-31T03:44:49;99896.13;;;26.12;44.00
59240;BME280;45010;53.640;10.578;2023-08-31T03:47:49;99890.78;;;26.12;43.81
59240;BME280;45010;53.640;10.578;2023-08-31T03:50:53;99894.53;;;26.11;43.86
59240;BME280;45010;53.640;10.578;2023-08-31T03:53:53;99884.31;;;25.98;43.83
59240;BME280;45010;53.640;10.578;2023-08-31T03:56:56;99907.34;;;26.09;43.67
59240;BME280;45010;53.640;10.578;2023-08-31T03:59:56;99898.25;;;26.10;43.98
59240;BME280;45010;53.640;10.578;2023-08-31T04:02:56;99905.47;;;26.10;43.83
59240;BME280;45010;53.640;10.578;2023-08-31T04:05:57;99897.19;;;26.06;43.74
59240;BME280;45010;53.640;10.578;2023-08-31T04:08:57;99903.06;;;26.08;43.49
59240;BME280;45010;53.640;10.578;2023-08-31T04:11:58;99898.78;;;26.07;43.87
59240;BME280;45010;53.640;10.578;2023-08-31T04:14:58;99888.59;;;25.94;43.54
59240;BME280;45010;53.640;10.578;2023-08-31T04:17:58;99892.88;;;26.00;43.78
59240;BME280;45010;53.640;10.578;2023-08-31T04:20:59;99900.09;;;26.04;43.85
59240;BME280;45010;53.640;10.578;2023-08-31T04:24:01;99900.94;;;26.05;43.61
59240;BME280;45010;53.640;10.578;2023-08-31T04:27:03;99901.97;;;26.04;43.93
59240;BME280;45010;53.640;10.578;2023-08-31T04:30:03;99900.09;;;26.04;43.78
59240;BME280;45010;53.640;10.578;2023-08-31T04:33:04;99900.34;;;25.98;43.79
59240;BME280;45010;53.640;10.578;2023-08-31T04:36:04;99908.38;;;26.03;43.80
59240;BME280;45010;53.640;10.578;2023-08-31T04:39:05;99912.13;;;26.02;43.83
59240;BME280;45010;53.640;10.578;2023-08-31T04:42:05;99920.13;;;26.02;43.94
59240;BME280;45010;53.640;10.578;2023-08-31T04:45:06;99924.66;;;26.01;43.82
59240;BME280;45010;53.640;10.578;2023-08-31T04:48:07;99918.00;;;25.99;43.98
59240;BME280;45010;53.640;10.578;2023-08-31T04:51:26;99924.13;;;25.99;43.99
59240;BME280;45010;53.640;10.578;2023-08-31T04:54:26;99919.03;;;25.98;44.47
59240;BME280;45010;53.640;10.578;2023-08-31T04:57:26;99931.34;;;25.99;44.12
59240;BME280;45010;53.640;10.578;2023-08-31T05:00:27;99936.13;;;25.97;44.34
59240;BME280;45010;53.640;10.578;2023-08-31T05:03:28;99938.28;;;25.95;44.66
59240;BME280;45010;53.640;10.578;2023-08-31T05:06:28;99947.06;;;25.95;44.29
59240;BME280;45010;53.640;10.578;2023-08-31T05:09:28;99955.91;;;25.96;44.33
59240;BME280;45010;53.640;10.578;2023-08-31T05:12:32;99956.72;;;25.96;44.66
59240;BME280;45010;53.640;10.578;2023-08-31T05:15:32;99962.84;;;25.97;44.22
59240;BME280;45010;53.640;10.578;2023-08-31T05:18:33;99972.22;;;25.99;44.47
59240;BME280;45010;53.640;10.578;2023-08-31T05:21:34;99965.78;;;25.95;44.62
59240;BME280;45010;53.640;10.578;2023-08-31T05:24:34;99968.22;;;26.02;44.52
59240;BME280;45010;53.640;10.578;2023-08-31T05:27:35;99976.78;;;26.04;44.01
59240;BME280;45010;53.640;10.578;2023-08-31T05:30:35;99977.34;;;26.06;44.16
59240;BME280;45010;53.640;10.578;2023-08-31T05:33:35;99981.09;;;26.05;44.09
59240;BME280;45010;53.640;10.578;2023-08-31T05:36:36;99986.72;;;26.09;43.99
59240;BME280;45010;53.640;10.578;2023-08-31T05:39:37;99990.72;;;26.11;43.85
59240;BME280;45010;53.640;10.578;2023-08-31T05:42:37;99966.59;;;25.96;43.77
59240;BME280;45010;53.640;10.578;2023-08-31T05:45:37;99990.19;;;26.14;44.05
59240;BME280;45010;53.640;10.578;2023-08-31T05:48:38;99991.81;;;26.15;43.61
59240;BME280;45010;53.640;10.578;2023-08-31T05:51:38;99991.56;;;26.17;43.95
59240;BME280;45010;53.640;10.578;2023-08-31T05:54:38;99991.31;;;26.18;43.65
59240;BME280;45010;53.640;10.578;2023-08-31T05:57:39;99993.16;;;26.18;43.80
59240;BME280;45010;53.640;10.578;2023-08-31T06:00:39;99992.09;;;26.19;43.37
59240;BME280;45010;53.640;10.578;2023-08-31T06:03:40;99999.84;;;26.21;43.36
59240;BME280;45010;53.640;10.578;2023-08-31T06:06:40;99994.75;;;26.19;43.64
59240;BME280;45010;53.640;10.578;2023-08-31T06:09:40;100007.63;;;26.22;43.40
59240;BME280;45010;53.640;10.578;2023-08-31T06:12:41;100001.22;;;26.23;43.49
59240;BME280;45010;53.640;10.578;2023-08-31T06:15:41;99989.69;;;26.17;43.64
59240;BME280;45010;53.640;10.578;2023-08-31T06:18:41;100005.50;;;26.24;43.26
59240;BME280;45010;53.640;10.578;2023-08-31T06:21:42;100004.72;;;26.24;43.36
59240;BME280;45010;53.640;10.578;2023-08-31T06:24:42;100006.31;;;26.25;43.36
59240;BME280;45010;53.640;10.578;2023-08-31T06:27:43;100007.94;;;26.26;43.61
59240;BME280;45010;53.640;10.578;2023-08-31T06:30:43;100001.50;;;26.27;43.92
59240;BME280;45010;53.640;10.578;2023-08-31T06:33:47;100009.53;;;26.27;43.83
59240;BME280;45010;53.640;10.578;2023-08-31T06:36:47;100011.13;;;26.28;43.79
59240;BME280;45010;53.640;10.578;2023-08-31T06:39:48;100016.47;;;26.28;43.53
59240;BME280;45010;53.640;10.578;2023-08-31T06:42:48;100003.94;;;26.28;43.45
59240;BME280;45010;53.640;10.578;2023-08-31T06:45:48;100012.75;;;26.29;43.68
59240;BME280;45010;53.640;10.578;2023-08-31T06:48:49;100008.22;;;26.29;43.48
59240;BME280;45010;53.640;10.578;2023-08-31T06:51:49;100014.38;;;26.30;43.33
59240;BME280;45010;53.640;10.578;2023-08-31T06:54:50;100014.38;;;26.30;42.79
59240;BME280;45010;53.640;10.578;2023-08-31T06:57:50;100015.97;;;26.31;42.98
59240;BME280;45010;53.640;10.578;2023-08-31T07:00:50;100009.03;;;26.30;42.61
59240;BME280;45010;53.640;10.578;2023-08-31T07:03:51;100006.34;;;26.30;42.49
59240;BME280;45010;53.640;10.578;2023-08-31T07:06:51;100003.69;;;26.30;42.44
59240;BME280;45010;53.640;10.578;2023-08-31T07:09:52;99999.94;;;26.31;42.57
59240;BME280;45010;53.640;10.578;2023-08-31T07:12:54;100007.97;;;26.31;42.24
59240;BME280;45010;53.640;10.578;2023-08-31T07:15:55;100010.63;;;26.31;42.38
59240;BME280;45010;53.640;10.578;2023-08-31T07:18:55;100004.72;;;26.24;42.26
59240;BME280;45010;53.640;10.578;2023-08-31T07:21:55;100017.56;;;26.32;42.09
59240;BME280;45010;53.640;10.578;2023-08-31T07:24:56;100025.06;;;26.30;41.95
59240;BME280;45010;53.640;10.578;2023-08-31T07:27:56;100018.41;;;26.32;41.86
59240;BME280;45010;53.640;10.578;2023-08-31T07:31:06;100013.84;;;26.33;41.92
59240;BME280;45010;53.640;10.578;2023-08-31T07:34:07;100019.19;;;26.33;41.69
59240;BME280;45010;53.640;10.578;2023-08-31T07:37:07;100017.56;;;26.32;41.94
59240;BME280;45010;53.640;10.578;2023-08-31T07:40:08;100021.84;;;26.33;41.96
59240;BME280;45010;53.640;10.578;2023-08-31T07:43:10;100020.78;;;26.34;41.92
59240;BME280;45010;53.640;10.578;2023-08-31T07:46:10;100009.53;;;26.27;41.92
59240;BME280;45010;53.640;10.578;2023-08-31T07:49:10;100018.69;;;26.36;41.97
59240;BME280;45010;53.640;10.578;2023-08-31T07:52:10;100022.94;;;26.37;41.55
59240;BME280;45010;53.640;10.578;2023-08-31T07:55:11;100029.66;;;26.40;41.62
59240;BME280;45010;53.640;10.578;2023-08-31T07:58:11;100014.38;;;26.30;41.56
59240;BME280;45010;53.640;10.578;2023-08-31T08:01:12;100039.03;;;26.42;41.91
59240;BME280;45010;53.640;10.578;2023-08-31T08:04:12;100035.28;;;26.43;41.31
59240;BME280;45010;53.640;10.578;2023-08-31T08:07:12;100039.56;;;26.44;41.21
59240;BME280;45010;53.640;10.578;2023-08-31T08:10:13;100047.56;;;26.44;40.84
59240;BME280;45010;53.640;10.578;2023-08-31T08:13:14;100039.31;;;26.46;40.59
59240;BME280;45010;53.640;10.578;2023-08-31T08:16:15;100045.44;;;26.46;40.88
59240;BME280;45010;53.640;10.578;2023-08-31T08:19:21;100040.09;;;26.46;40.38
59240;BME280;45010;53.640;10.578;2023-08-31T08:22:24;100047.06;;;26.48;40.71
59240;BME280;45010;53.640;10.578;2023-08-31T08:25:24;100044.94;;;26.50;40.18
59240;BME280;45010;53.640;10.578;2023-08-31T08:28:25;100041.19;;;26.51;40.49
59240;BME280;45010;53.640;10.578;2023-08-31T08:31:26;100045.47;;;26.52;40.00
59240;BME280;45010;53.640;10.578;2023-08-31T08:34:26;100049.22;;;26.51;39.53
59240;BME280;45010;53.640;10.578;2023-08-31T08:37:27;100044.38;;;26.53;39.88
59240;BME280;45010;53.640;10.578;2023-08-31T08:40:31;100046.03;;;26.54;39.67
59240;BME280;45010;53.640;10.578;2023-08-31T08:43:33;100049.50;;;26.54;39.31
59240;BME280;45010;53.640;10.578;2023-08-31T08:46:34;100048.41;;;26.55;38.88
59240;BME280;45010;53.640;10.578;2023-08-31T08:49:35;100058.84;;;26.57;38.82
59240;BME280;45010;53.640;10.578;2023-08-31T08:52:36;100047.06;;;26.53;38.78
59240;BME280;45010;53.640;10.578;2023-08-31T08:55:37;100061.53;;;26.57;38.78
59240;BME280;45010;53.640;10.578;2023-08-31T08:58:38;100064.78;;;26.59;38.33
59240;BME280;45010;53.640;10.578;2023-08-31T09:01:39;100008.44;;;26.23;38.40
59240;BME280;45010;53.640;10.578;2023-08-31T09:04:39;100058.88;;;26.62;38.56
59240;BME280;45010;53.640;10.578;2023-08-31T09:08:00;100059.44;;;26.59;38.06
59240;BME280;45010;53.640;10.578;2023-08-31T09:11:00;100051.41;;;26.64;38.27
59240;BME280;45010;53.640;10.578;2023-08-31T09:14:19;100047.38;;;26.62;38.29
59240;BME280;45010;53.640;10.578;2023-08-31T09:17:23;100039.03;;;26.53;38.12
59240;BME280;45010;53.640;10.578;2023-08-31T09:20:24;100063.19;;;26.68;38.48
59240;BME280;45010;53.640;10.578;2023-08-31T09:23:25;100051.41;;;26.64;37.94
59240;BME280;45010;53.640;10.578;2023-08-31T09:26:25;100059.44;;;26.69;38.37
59240;BME280;45010;53.640;10.578;2023-08-31T09:29:25;100061.03;;;26.70;38.13
59240;BME280;45010;53.640;10.578;2023-08-31T09:32:26;100061.59;;;26.72;38.47
59240;BME280;45010;53.640;10.578;2023-08-31T09:35:26;100057.31;;;26.71;38.42
59240;BME280;45010;53.640;10.578;2023-08-31T09:38:27;100054.63;;;26.66;38.31
59240;BME280;45010;53.640;10.578;2023-08-31T09:41:27;100065.88;;;26.73;38.63
59240;BME280;45010;53.640;10.578;2023-08-31T09:44:28;100062.13;;;26.75;38.25
59240;BME280;45010;53.640;10.578;2023-08-31T09:47:28;100067.50;;;26.75;38.19
59240;BME280;45010;53.640;10.578;2023-08-31T09:50:32;100074.44;;;26.76;38.24
59240;BME280;45010;53.640;10.578;2023-08-31T09:53:36;100037.22;;;26.58;38.17
59240;BME280;45010;53.640;10.578;2023-08-31T09:56:37;100061.63;;;26.78;38.13
59240;BME280;45010;53.640;10.578;2023-08-31T09:59:38;100065.66;;;26.80;38.00
59240;BME280;45010;53.640;10.578;2023-08-31T10:02:39;100061.09;;;26.81;38.09
59240;BME280;45010;53.640;10.578;2023-08-31T10:05:40;100061.63;;;26.78;37.72
59240;BME280;45010;53.640;10.578;2023-08-31T10:08:41;100060.56;;;26.84;37.76
59240;BME280;45010;53.640;10.578;2023-08-31T10:11:41;100063.25;;;26.84;37.63
59240;BME280;45010;53.640;10.578;2023-08-31T10:14:42;100065.94;;;26.84;37.83
59240;BME280;45010;53.640;10.578;2023-08-31T10:17:46;100051.97;;;26.77;37.71
59240;BME280;45010;53.640;10.578;2023-08-31T10:20:46;100062.97;;;26.85;37.69
59240;BME280;45010;53.640;10.578;2023-08-31T10:23:48;100042.59;;;26.69;37.44
59240;BME280;45010;53.640;10.578;2023-08-31T10:26:48;100062.19;;;26.85;37.23
59240;BME280;45010;53.640;10.578;2023-08-31T10:29:49;100062.97;;;26.85;37.39
59240;BME280;45010;53.640;10.578;2023-08-31T10:36:18;100067.50;;;26.80;37.31
59240;BME280;45010;53.640;10.578;2023-08-31T10:39:19;100065.94;;;26.84;37.35
59240;BME280;45010;53.640;10.578;2023-08-31T10:42:23;100065.94;;;26.84;36.97
59240;BME280;45010;53.640;10.578;2023-08-31T10:45:23;100062.19;;;26.85;37.20
59240;BME280;45010;53.640;10.578;2023-08-31T10:48:25;100062.44;;;26.83;37.01
59240;BME280;45010;53.640;10.578;2023-08-31T10:51:35;100063.78;;;26.86;37.21
59240;BME280;45010;53.640;10.578;2023-08-31T10:54:35;100068.88;;;26.82;37.26
59240;BME280;45010;53.640;10.578;2023-08-31T10:57:36;100070.47;;;26.83;36.86
59240;BME280;45010;53.640;10.578;2023-08-31T11:00:47;100041.78;;;26.68;37.17
59240;BME280;45010;53.640;10.578;2023-08-31T11:03:59;100061.38;;;26.84;37.24
59240;BME280;45010;53.640;10.578;2023-08-31T11:07:19;100057.91;;;26.84;37.50
59240;BME280;45010;53.640;10.578;2023-08-31T11:10:20;100058.94;;;26.83;37.37
59240;BME280;45010;53.640;10.578;2023-08-31T11:13:23;100035.63;;;26.68;37.48
59240;BME280;45010;53.640;10.578;2023-08-31T11:16:23;100067.53;;;26.85;37.10
59240;BME280;45010;53.640;10.578;2023-08-31T11:19:24;100069.13;;;26.86;37.20
59240;BME280;45010;53.640;10.578;2023-08-31T11:22:24;100064.59;;;26.86;37.22
59240;BME280;45010;53.640;10.578;2023-08-31T11:25:25;100067.00;;;26.88;36.79
59240;BME280;45010;53.640;10.578;2023-08-31T11:28:25;100060.03;;;26.87;36.66
59240;BME280;45010;53.640;10.578;2023-08-31T11:31:32;100072.34;;;26.88;36.73
59240;BME280;45010;53.640;10.578;2023-08-31T11:34:32;100069.94;;;26.86;37.09
59240;BME280;45010;53.640;10.578;2023-08-31T11:37:32;100070.75;;;26.87;36.66
59240;BME280;45010;53.640;10.578;2023-08-31T11:40:33;100070.75;;;26.87;37.06
59240;BME280;45010;53.640;10.578;2023-08-31T11:43:33;100068.06;;;26.87;36.76
59240;BME280;45010;53.640;10.578;2023-08-31T11:46:35;100070.75;;;26.87;37.05
59240;BME280;45010;53.640;10.578;2023-08-31T11:49:36;100062.47;;;26.89;36.61
59240;BME280;45010;53.640;10.578;2023-08-31T11:52:37;100063.84;;;26.91;36.39
59240;BME280;45010;53.640;10.578;2023-08-31T11:55:49;100062.97;;;26.85;36.69
59240;BME280;45010;53.640;10.578;2023-08-31T11:58:52;100070.78;;;26.92;36.45
59240;BME280;45010;53.640;10.578;2023-08-31T12:01:56;100072.66;;;26.92;36.81
59240;BME280;45010;53.640;10.578;2023-08-31T12:04:56;100078.81;;;26.92;36.30
59240;BME280;45010;53.640;10.578;2023-08-31T12:07:57;100064.28;;;26.83;36.04
59240;BME280;45010;53.640;10.578;2023-08-31T12:11:00;100086.28;;;26.90;36.23
59240;BME280;45010;53.640;10.578;2023-08-31T12:14:01;100072.91;;;26.90;35.97
59240;BME280;45010;53.640;10.578;2023-08-31T12:17:06;100076.38;;;26.91;35.34
59240;BME280;45010;53.640;10.578;2023-08-31T12:20:07;100065.09;;;26.78;35.32
59240;BME280;45010;53.640;10.578;2023-08-31T12:23:07;100080.13;;;26.90;35.26
59240;BME280;45010;53.640;10.578;2023-08-31T12:26:09;100069.66;;;26.88;35.12
59240;BME280;45010;53.640;10.578;2023-08-31T12:29:10;100075.00;;;26.83;35.27
59240;BME280;45010;53.640;10.578;2023-08-31T12:32:10;100076.09;;;26.87;35.54
59240;BME280;45010;53.640;10.578;2023-08-31T12:35:10;100086.78;;;26.87;35.56
59240;BME280;45010;53.640;10.578;2023-08-31T12:38:12;100081.16;;;26.83;35.69
59240;BME280;45010;53.640;10.578;2023-08-31T12:41:12;100086.78;;;26.87;35.83
59240;BME280;45010;53.640;10.578;2023-08-31T12:44:13;100089.22;;;26.89;35.91
59240;BME280;45010;53.640;10.578;2023-08-31T12:47:13;100084.66;;;26.89;35.93
59240;BME280;45010;53.640;10.578;2023-08-31T12:50:15;100060.53;;;26.73;35.72
59240;BME280;45010;53.640;10.578;2023-08-31T12:53:15;100083.88;;;26.89;35.52
59240;BME280;45010;53.640;10.578;2023-08-31T12:56:16;100079.31;;;26.89;35.47
59240;BME280;45010;53.640;10.578;2023-08-31T12:59:21;100078.50;;;26.89;35.99
59240;BME280;45010;53.640;10.578;2023-08-31T13:02:21;100083.59;;;26.85;35.45
59240;BME280;45010;53.640;10.578;2023-08-31T13:05:22;100081.97;;;26.89;35.54
59240;BME280;45010;53.640;10.578;2023-08-31T13:08:22;100071.78;;;26.81;35.83
59240;BME280;45010;53.640;10.578;2023-08-31T13:11:23;100091.63;;;26.90;35.51
59240;BME280;45010;53.640;10.578;2023-08-31T13:14:23;100054.66;;;26.71;35.49
59240;BME280;45010;53.640;10.578;2023-08-31T13:17:24;100083.88;;;26.89;35.60
59240;BME280;45010;53.640;10.578;2023-08-31T13:20:26;100080.34;;;26.83;35.66
59240;BME280;45010;53.640;10.578;2023-08-31T13:23:28;100084.66;;;26.89;35.37
59240;BME280;45010;53.640;10.578;2023-08-31T13:26:28;100090.00;;;26.89;35.80
59240;BME280;45010;53.640;10.578;2023-08-31T13:29:29;100089.22;;;26.89;35.80
59240;BME280;45010;53.640;10.578;2023-08-31T13:32:30;100093.28;;;26.91;35.43
59240;BME280;45010;53.640;10.578;2023-08-31T13:35:30;100093.28;;;26.91;35.45
59240;BME280;45010;53.640;10.578;2023-08-31T13:38:31;100112.00;;;26.91;35.87
59240;BME280;45010;53.640;10.578;2023-08-31T13:41:31;100129.09;;;26.90;35.93
59240;BME280;45010;53.640;10.578;2023-08-31T13:44:32;100121.03;;;26.85;35.69
59240;BME280;45010;53.640;10.578;2023-08-31T13:47:32;100129.09;;;26.90;36.07
59240;BME280;45010;53.640;10.578;2023-08-31T13:50:32;100145.94;;;26.91;36.64
59240;BME280;45010;53.640;10.578;2023-08-31T13:53:33;100138.75;;;26.91;36.52
59240;BME280;45010;53.640;10.578;2023-08-31T13:56:34;100133.34;;;26.86;37.22
59240;BME280;45010;53.640;10.578;2023-08-31T13:59:34;100119.44;;;26.84;37.08
59240;BME280;45010;53.640;10.578;2023-08-31T14:02:35;100139.28;;;26.93;37.31
59240;BME280;45010;53.640;10.578;2023-08-31T14:05:37;100146.25;;;26.94;37.85
59240;BME280;45010;53.640;10.578;2023-08-31T14:08:37;100141.97;;;26.93;38.11
59240;BME280;45010;53.640;10.578;2023-08-31T14:11:37;100144.63;;;26.93;37.93
59240;BME280;45010;53.640;10.578;2023-08-31T14:14:38;100139.28;;;26.93;38.51
59240;BME280;45010;53.640;10.578;2023-08-31T14:17:39;100135.53;;;26.94;38.56
59240;BME280;45010;53.640;10.578;2023-08-31T14:20:39;100142.53;;;26.95;38.66
59240;BME280;45010;53.640;10.578;2023-08-31T14:23:40;100140.38;;;26.97;38.35
59240;BME280;45010;53.640;10.578;2023-08-31T14:26:40;100120.78;;;26.86;38.56
59240;BME280;45010;53.640;10.578;2023-08-31T14:29:40;100136.63;;;26.98;38.81
59240;BME280;45010;53.640;10.578;2023-08-31T14:32:41;100138.25;;;26.99;39.07
59240;BME280;45010;53.640;10.578;2023-08-31T14:35:41;100139.84;;;27.01;39.41
59240;BME280;45010;53.640;10.578;2023-08-31T14:38:42;100126.97;;;26.92;38.95
59240;BME280;45010;53.640;10.578;2023-08-31T14:41:42;100147.88;;;27.01;39.11
59240;BME280;45010;53.640;10.578;2023-08-31T14:44:43;100159.66;;;26.99;39.63
59240;BME280;45010;53.640;10.578;2023-08-31T14:47:44;100156.97;;;26.99;39.69
59240;BME280;45010;53.640;10.578;2023-08-31T14:50:44;100150.56;;;26.95;39.26
59240;BME280;45010;53.640;10.578;2023-08-31T14:53:44;100162.88;;;27.02;39.49
59240;BME280;45010;53.640;10.578;2023-08-31T14:56:45;100160.22;;;27.02;39.69
59240;BME280;45010;53.640;10.578;2023-08-31T14:59:46;100160.22;;;27.02;39.88
59240;BME280;45010;53.640;10.578;2023-08-31T15:02:46;100142.53;;;26.95;39.69
59240;BME280;45010;53.640;10.578;2023-08-31T15:05:48;100159.94;;;27.03;40.21
59240;BME280;45010;53.640;10.578;2023-08-31T15:08:49;100158.84;;;27.04;40.33
59240;BME280;45010;53.640;10.578;2023-08-31T15:11:49;100156.19;;;27.04;39.97
59240;BME280;45010;53.640;10.578;2023-08-31T15:14:50;100156.19;;;27.04;39.62
59240;BME280;45010;53.640;10.578;2023-08-31T15:17:50;100149.50;;;27.02;39.84
59240;BME280;45010;53.640;10.578;2023-08-31T15:20:50;100158.59;;;27.06;39.66
59240;BME280;45010;53.640;10.578;2023-08-31T15:23:51;100158.59;;;27.06;39.78
59240;BME280;45010;53.640;10.578;2023-08-31T15:26:51;100159.69;;;27.05;39.67
59240;BME280;45010;53.640;10.578;2023-08-31T15:29:52;100171.72;;;27.07;39.65
59240;BME280;45010;53.640;10.578;2023-08-31T15:32:52;100171.72;;;27.07;39.10
59240;BME280;45010;53.640;10.578;2023-08-31T15:36:04;100174.41;;;27.07;39.13
59240;BME280;45010;53.640;10.578;2023-08-31T15:39:05;100177.91;;;27.08;39.05
59240;BME280;45010;53.640;10.578;2023-08-31T15:42:05;100172.56;;;27.08;39.21
59240;BME280;45010;53.640;10.578;2023-08-31T15:45:06;100175.22;;;27.08;39.10
59240;BME280;45010;53.640;10.578;2023-08-31T15:48:06;100170.34;;;26.99;39.01